Terminal Aerodrome Forecast
Issued by NWS Wakefield, VA

Home | Current Version | Previous Version | Text Only | Print | Product List | Glossary On
Versions: 1 2 3 4 5 6 7 8 9 10 11 12 13 14 15
000
FTUS41 KAKQ 310000 AAA
TAFECG
TAF AMD
KECG 310038Z 3101/3124 34016G26KT P6SM BKN080
     FM310300 33014G22KT P6SM SKC
     FM311000 32012G18KT P6SM SKC
     FM312100 30009KT P6SM SKC=

USA.gov is the U.S. government's official web portal to all federal, state and local government web resources and services.